createdAt,value
2018-11-01T00:01:28.057Z,7.34
2018-11-01T00:03:56.703Z,7.28
2018-11-01T00:06:25.480Z,7.29
2018-11-01T00:08:54.116Z,7.18
2018-11-01T00:11:22.765Z,7.40
2018-11-01T00:13:51.480Z,7.29
2018-11-01T00:16:20.136Z,7.24
2018-11-01T00:18:48.798Z,7.27
2018-11-01T00:21:17.439Z,7.19
2018-11-01T00:23:46.093Z,7.19
2018-11-01T00:26:14.735Z,7.17
2018-11-01T00:28:43.358Z,7.27
2018-11-01T00:31:12.052Z,7.38
2018-11-01T00:33:40.721Z,7.37
2018-11-01T00:36:09.381Z,7.32
2018-11-01T00:38:38.009Z,7.27
2018-11-01T00:41:06.691Z,7.29
2018-11-01T00:43:35.382Z,7.26
2018-11-01T00:46:04.031Z,7.14
2018-11-01T00:48:32.648Z,7.22
2018-11-01T00:51:01.331Z,7.17
2018-11-01T00:53:29.928Z,7.23
2018-11-01T00:55:58.661Z,7.23
2018-11-01T00:58:27.281Z,7.23
2018-11-01T01:00:55.973Z,7.18
2018-11-01T01:03:24.637Z,7.20
2018-11-01T01:05:53.304Z,7.25
2018-11-01T01:08:21.999Z,7.31
2018-11-01T01:10:50.644Z,7.31
2018-11-01T01:13:19.276Z,7.25
2018-11-01T01:15:47.945Z,7.29
2018-11-01T01:18:16.636Z,7.24
2018-11-01T01:20:45.305Z,7.25
2018-11-01T01:23:14.192Z,7.29
2018-11-01T01:25:43.807Z,7.18
2018-11-01T01:28:13.726Z,7.24
2018-11-01T01:30:42.383Z,7.26
2018-11-01T01:33:11.044Z,7.27
2018-11-01T01:35:39.713Z,7.33
2018-11-01T01:38:08.329Z,7.34
2018-11-01T01:40:37.002Z,7.26
2018-11-01T01:43:05.654Z,7.25
2018-11-01T01:45:34.323Z,7.34
2018-11-01T01:48:02.957Z,7.33
2018-11-01T01:50:31.631Z,7.28
2018-11-01T01:53:00.228Z,7.30
2018-11-01T01:55:28.921Z,7.31
2018-11-01T01:57:57.555Z,7.27
2018-11-01T02:00:26.221Z,7.25
2018-11-01T02:02:54.833Z,7.28
2018-11-01T02:05:23.500Z,7.25
2018-11-01T02:07:52.183Z,7.20
2018-11-01T02:10:20.821Z,7.22
2018-11-01T02:12:49.455Z,7.15
2018-11-01T02:15:19.336Z,7.15
2018-11-01T02:17:47.990Z,7.09
2018-11-01T02:20:17.905Z,7.23
2018-11-01T02:22:46.830Z,7.08
2018-11-01T02:25:15.639Z,7.22
2018-11-01T02:28:20.719Z,7.07
2018-11-01T02:30:49.381Z,7.10
2018-11-01T02:33:18.004Z,7.04
2018-11-01T02:35:46.647Z,7.03
2018-11-01T02:38:15.388Z,7.01
2018-11-01T02:40:43.919Z,7.12
2018-11-01T02:43:12.521Z,7.07
2018-11-01T02:45:41.189Z,6.96
2018-11-01T02:48:09.843Z,6.85
2018-11-01T02:50:38.501Z,6.96
2018-11-01T02:53:07.177Z,6.98
2018-11-01T02:55:35.849Z,7.04
2018-11-01T02:58:04.516Z,6.96
2018-11-01T03:00:33.177Z,6.85
2018-11-01T03:03:01.795Z,6.88
2018-11-01T03:05:30.458Z,6.91
2018-11-01T03:07:59.126Z,6.88
2018-11-01T03:10:27.780Z,6.85
2018-11-01T03:12:56.391Z,6.86
2018-11-01T03:15:25.033Z,6.88
2018-11-01T03:17:53.700Z,6.87
2018-11-01T03:20:22.352Z,6.86
2018-11-01T03:22:51.016Z,6.89
2018-11-01T03:25:19.920Z,6.90
2018-11-01T03:27:48.593Z,6.81
2018-11-01T03:30:17.257Z,6.90
2018-11-01T03:32:45.916Z,6.83
2018-11-01T03:35:14.582Z,6.76
2018-11-01T03:37:43.233Z,6.82
2018-11-01T03:40:12.630Z,6.69
2018-11-01T03:42:42.059Z,6.59
2018-11-01T03:45:12.330Z,6.52
2018-11-01T03:47:41.727Z,6.51
2018-11-01T03:50:10.878Z,6.53
2018-11-01T03:52:39.549Z,6.38
2018-11-01T03:55:09.525Z,6.29
2018-11-01T03:57:38.170Z,6.41
2018-11-01T04:00:09.665Z,6.41
2018-11-01T04:02:38.338Z,6.43
2018-11-01T04:05:06.989Z,6.39
2018-11-01T04:07:35.817Z,6.46
2018-11-01T04:10:05.589Z,6.43
2018-11-01T04:12:34.277Z,6.44
2018-11-01T04:15:02.970Z,6.36
2018-11-01T04:17:31.772Z,6.31
2018-11-01T04:20:00.458Z,6.31
2018-11-01T04:22:29.158Z,6.39
2018-11-01T04:24:57.813Z,6.24
2018-11-01T04:27:26.633Z,6.22
2018-11-01T04:29:55.297Z,6.24
2018-11-01T04:32:24.446Z,6.24
2018-11-01T04:34:53.074Z,6.25
2018-11-01T04:37:21.738Z,6.21
2018-11-01T04:39:50.558Z,6.23
2018-11-01T04:42:19.200Z,6.19
2018-11-01T04:44:47.884Z,6.08
2018-11-01T04:47:16.625Z,6.16
2018-11-01T04:49:45.292Z,6.15
2018-11-01T04:52:13.943Z,6.21
2018-11-01T04:54:42.631Z,6.20
2018-11-01T04:57:11.298Z,6.16
2018-11-01T04:59:40.015Z,6.13
2018-11-01T05:02:08.846Z,6.14
2018-11-01T05:04:37.674Z,6.19
2018-11-01T05:07:06.317Z,6.16
2018-11-01T05:09:34.963Z,6.21
2018-11-01T05:12:03.860Z,6.26
2018-11-01T05:14:32.458Z,6.29
2018-11-01T05:17:01.136Z,6.33
2018-11-01T05:19:29.767Z,6.30
2018-11-01T05:21:58.523Z,6.31
2018-11-01T05:24:27.925Z,6.58
2018-11-01T05:26:56.779Z,6.54
2018-11-01T05:29:25.429Z,6.44
2018-11-01T05:31:54.116Z,6.41
2018-11-01T05:34:22.808Z,6.40
2018-11-01T05:36:51.904Z,6.44
2018-11-01T05:39:21.421Z,6.37
2018-11-01T05:41:50.085Z,6.39
2018-11-01T05:44:18.709Z,6.46
2018-11-01T05:46:47.372Z,6.48
2018-11-01T05:49:16.205Z,6.41
2018-11-01T05:51:44.883Z,6.40
2018-11-01T05:54:14.655Z,6.40
2018-11-01T05:56:43.286Z,6.42
2018-11-01T05:59:11.929Z,6.41
2018-11-01T06:01:46.012Z,6.39
2018-11-01T06:04:14.680Z,6.45
2018-11-01T06:06:43.308Z,6.46
2018-11-01T06:09:16.700Z,6.42
2018-11-01T06:11:45.337Z,6.37
2018-11-01T06:14:13.999Z,6.45
2018-11-01T06:16:42.684Z,6.48
2018-11-01T06:19:11.391Z,6.44
2018-11-01T06:21:40.058Z,6.40
2018-11-01T06:24:08.716Z,6.39
2018-11-01T06:26:37.434Z,6.33
2018-11-01T06:29:06.058Z,6.37
2018-11-01T06:31:34.810Z,6.31
2018-11-01T06:34:03.433Z,6.27
2018-11-01T06:36:32.105Z,6.28
2018-11-01T06:39:00.780Z,6.23
2018-11-01T06:41:29.500Z,6.25
2018-11-01T06:43:58.163Z,6.21
2018-11-01T06:46:26.842Z,6.26
2018-11-01T06:48:55.542Z,6.28
2018-11-01T06:51:25.017Z,6.35
2018-11-01T06:53:53.776Z,6.37
2018-11-01T06:56:22.440Z,6.37
2018-11-01T06:58:51.201Z,6.40
2018-11-01T07:01:20.023Z,6.50
2018-11-01T07:03:48.761Z,6.42
2018-11-01T07:06:17.782Z,6.45
2018-11-01T07:08:46.606Z,6.46
2018-11-01T07:11:15.267Z,6.52
2018-11-01T07:13:43.911Z,6.58
2018-11-01T07:16:12.531Z,6.59
2018-11-01T07:18:41.277Z,6.61
2018-11-01T07:21:09.937Z,6.66
2018-11-01T07:23:38.624Z,6.82
2018-11-01T07:26:07.377Z,6.83
2018-11-01T07:28:36.378Z,6.84
2018-11-01T07:31:05.144Z,6.96
2018-11-01T07:33:33.837Z,6.96
2018-11-01T07:36:02.517Z,7.05
2018-11-01T07:38:31.200Z,7.22
2018-11-01T07:40:59.875Z,7.25
2018-11-01T07:43:28.549Z,7.26
2018-11-01T07:45:57.212Z,7.30
2018-11-01T07:48:25.913Z,7.33
2018-11-01T07:50:54.491Z,7.38
2018-11-01T07:53:23.188Z,7.46
2018-11-01T07:55:51.831Z,7.56
2018-11-01T07:58:20.566Z,7.57
2018-11-01T08:00:49.182Z,7.58
2018-11-01T08:03:17.791Z,7.77
2018-11-01T08:05:46.516Z,7.73
2018-11-01T08:08:15.112Z,7.84
2018-11-01T08:10:43.829Z,7.79
2018-11-01T08:13:12.455Z,7.83
2018-11-01T08:15:41.088Z,7.87
2018-11-01T08:18:09.714Z,7.94
2018-11-01T08:20:38.423Z,8.01
2018-11-01T08:23:06.980Z,8.17
2018-11-01T08:25:35.617Z,8.23
2018-11-01T08:28:04.322Z,8.31
2018-11-01T08:30:32.871Z,8.33
2018-11-01T08:33:01.594Z,8.48
2018-11-01T08:35:30.292Z,8.53
2018-11-01T08:37:58.946Z,8.63
2018-11-01T08:40:27.597Z,8.74
2018-11-01T08:42:56.227Z,8.79
2018-11-01T08:45:24.836Z,8.90
2018-11-01T08:47:53.503Z,8.90
2018-11-01T08:50:22.157Z,9.01
2018-11-01T08:52:50.851Z,9.02
2018-11-01T08:55:19.511Z,9.10
2018-11-01T08:57:48.133Z,9.31
2018-11-01T09:00:16.809Z,9.39
2018-11-01T09:02:45.592Z,9.42
2018-11-01T09:05:14.623Z,9.49
2018-11-01T09:07:43.346Z,9.64
2018-11-01T09:10:13.668Z,9.84
2018-11-01T09:12:42.453Z,9.99
2018-11-01T09:15:11.976Z,10.06
2018-11-01T09:17:40.932Z,10.18
2018-11-01T09:20:10.064Z,10.25
2018-11-01T09:22:39.200Z,10.35
2018-11-01T09:25:07.977Z,10.34
2018-11-01T09:27:36.756Z,10.31
2018-11-01T09:30:07.903Z,10.41
2018-11-01T09:32:36.515Z,10.55
2018-11-01T09:35:05.659Z,10.56
2018-11-01T09:37:34.315Z,10.50
2018-11-01T09:40:02.991Z,10.50
2018-11-01T09:42:31.652Z,10.55
2018-11-01T09:45:00.276Z,10.57
2018-11-01T09:47:29.258Z,10.77
2018-11-01T09:49:57.564Z,10.79
2018-11-01T09:52:26.300Z,10.79
2018-11-01T09:54:54.934Z,10.65
2018-11-01T09:57:23.673Z,10.52
2018-11-01T09:59:52.386Z,10.55
2018-11-01T10:02:20.968Z,10.62
2018-11-01T10:04:49.631Z,10.80
2018-11-01T10:07:18.308Z,10.83
2018-11-01T10:09:47.017Z,10.67
2018-11-01T10:12:15.650Z,10.69
2018-11-01T10:14:44.269Z,10.74
2018-11-01T10:17:13.429Z,10.79
2018-11-01T10:19:41.548Z,11.10
2018-11-01T10:22:10.186Z,11.13
2018-11-01T10:24:38.939Z,11.43
2018-11-01T10:27:07.923Z,11.67
2018-11-01T10:29:36.679Z,11.78
2018-11-01T10:32:05.474Z,11.90
2018-11-01T10:34:34.094Z,12.32
2018-11-01T10:37:02.705Z,12.67
2018-11-01T10:39:31.333Z,12.57
2018-11-01T10:42:00.112Z,12.60
2018-11-01T10:44:28.755Z,12.57
2018-11-01T10:46:57.599Z,12.61
2018-11-01T10:49:26.248Z,12.52
2018-11-01T10:51:54.935Z,12.31
2018-11-01T10:54:23.694Z,12.59
2018-11-01T10:56:52.160Z,12.57
2018-11-01T10:59:20.764Z,12.51
2018-11-01T11:01:54.771Z,12.32
2018-11-01T11:04:23.392Z,12.23
2018-11-01T11:06:52.080Z,12.16
2018-11-01T11:09:20.700Z,12.29
2018-11-01T11:11:49.328Z,12.27
2018-11-01T11:14:18.041Z,12.22
2018-11-01T11:16:46.638Z,12.05
2018-11-01T11:19:15.269Z,12.11
2018-11-01T11:21:45.676Z,12.13
2018-11-01T11:24:14.455Z,12.13
2018-11-01T11:26:43.064Z,12.07
2018-11-01T11:29:11.757Z,12.15
2018-11-01T11:31:40.392Z,11.98
2018-11-01T11:34:09.041Z,11.98
2018-11-01T11:36:37.692Z,12.02
2018-11-01T11:39:09.071Z,12.03
2018-11-01T11:41:37.812Z,12.07
2018-11-01T11:44:06.652Z,12.10
2018-11-01T11:46:35.260Z,12.17
2018-11-01T11:49:03.916Z,12.08
2018-11-01T11:51:32.626Z,11.99
2018-11-01T11:54:01.233Z,11.94
2018-11-01T11:56:30.156Z,11.93
2018-11-01T11:58:58.810Z,12.05
2018-11-01T12:01:27.477Z,12.17
2018-11-01T12:03:56.083Z,12.11
2018-11-01T12:06:25.057Z,12.04
2018-11-01T12:08:53.521Z,12.12
2018-11-01T12:11:22.259Z,11.86
2018-11-01T12:13:50.914Z,11.90
2018-11-01T12:16:19.605Z,11.87
2018-11-01T12:18:48.237Z,11.96
2018-11-01T12:21:16.924Z,12.13
2018-11-01T12:23:45.550Z,12.16
2018-11-01T12:26:14.513Z,12.28
2018-11-01T12:28:43.398Z,12.35
2018-11-01T12:31:11.872Z,12.26
2018-11-01T12:33:40.638Z,12.21
2018-11-01T12:36:09.434Z,12.33
2018-11-01T12:38:37.991Z,12.37
2018-11-01T12:41:06.633Z,12.34
2018-11-01T12:43:35.268Z,12.30
2018-11-01T12:46:03.971Z,12.36
2018-11-01T12:48:32.614Z,12.33
2018-11-01T12:51:01.276Z,12.38
2018-11-01T12:53:29.934Z,12.29
2018-11-01T12:55:58.637Z,12.27
2018-11-01T12:58:27.266Z,12.11
2018-11-01T13:00:55.914Z,12.18
2018-11-01T13:03:24.560Z,11.99
2018-11-01T13:05:53.200Z,12.06
2018-11-01T13:08:22.149Z,11.89
2018-11-01T13:10:50.926Z,11.84
2018-11-01T13:13:19.656Z,11.81
2018-11-01T13:15:48.304Z,11.78
2018-11-01T13:18:16.955Z,11.81
2018-11-01T13:20:45.604Z,11.61
2018-11-01T13:23:14.248Z,11.66
2018-11-01T13:25:42.921Z,11.61
2018-11-01T13:28:11.532Z,11.57
2018-11-01T13:30:40.187Z,11.59
2018-11-01T13:33:08.931Z,11.56
2018-11-01T13:35:37.625Z,11.47
2018-11-01T13:38:06.279Z,11.51
2018-11-01T13:40:35.271Z,11.48
2018-11-01T13:43:03.551Z,11.47
2018-11-01T13:45:32.224Z,11.51
2018-11-01T13:48:00.936Z,11.38
2018-11-01T13:50:29.485Z,11.20
2018-11-01T13:52:58.158Z,11.27
2018-11-01T13:55:26.801Z,11.32
2018-11-01T13:57:55.421Z,11.17
2018-11-01T14:00:24.059Z,11.16
2018-11-01T14:02:52.760Z,11.07
2018-11-01T14:05:21.419Z,10.97
2018-11-01T14:07:50.353Z,10.97
2018-11-01T14:10:19.012Z,11.03
2018-11-01T14:12:47.677Z,10.96
2018-11-01T14:15:16.745Z,11.05
2018-11-01T14:17:45.024Z,11.08
2018-11-01T14:20:14.132Z,11.15
2018-11-01T14:22:42.816Z,11.15
2018-11-01T14:25:12.373Z,11.02
2018-11-01T14:27:41.287Z,10.94
2018-11-01T14:30:12.109Z,10.92
2018-11-01T14:32:41.003Z,10.83
2018-11-01T14:35:10.290Z,10.72
2018-11-01T14:37:38.939Z,10.73
2018-11-01T14:40:09.753Z,10.81
2018-11-01T14:42:38.567Z,10.67
2018-11-01T14:45:07.692Z,10.68
2018-11-01T14:47:36.345Z,10.69
2018-11-01T14:50:06.070Z,10.58
2018-11-01T14:52:35.200Z,10.59
2018-11-01T14:55:04.256Z,10.48
2018-11-01T14:57:33.609Z,10.45
2018-11-01T15:00:00.773Z,10.55
2018-11-01T15:02:29.396Z,10.52
2018-11-01T15:04:58.080Z,10.41
2018-11-01T15:07:26.728Z,10.43
2018-11-01T15:09:55.525Z,10.39
2018-11-01T15:12:24.368Z,10.27
2018-11-01T15:14:53.029Z,10.34
2018-11-01T15:17:21.744Z,10.29
2018-11-01T15:19:50.425Z,10.27
2018-11-01T15:22:19.070Z,10.29
2018-11-01T15:24:47.800Z,10.21
2018-11-01T15:27:16.517Z,10.24
2018-11-01T15:29:45.181Z,10.23
2018-11-01T15:32:19.288Z,10.19
2018-11-01T15:34:47.974Z,10.16
2018-11-01T15:37:16.632Z,10.16
2018-11-01T15:39:45.337Z,10.21
2018-11-01T15:42:14.020Z,10.11
2018-11-01T15:44:42.856Z,10.10
2018-11-01T15:47:11.514Z,10.18
2018-11-01T15:49:40.420Z,10.05
2018-11-01T15:52:09.270Z,9.96
2018-11-01T15:54:38.041Z,10.10
2018-11-01T15:57:06.708Z,10.06
2018-11-01T15:59:35.407Z,10.12
2018-11-01T16:02:04.089Z,10.15
2018-11-01T16:04:32.663Z,10.09
2018-11-01T16:07:01.324Z,10.09
2018-11-01T16:09:29.948Z,10.19
2018-11-01T16:11:58.547Z,10.15
2018-11-01T16:14:27.466Z,10.11
2018-11-01T16:16:56.075Z,10.05
2018-11-01T16:19:24.750Z,10.03
2018-11-01T16:21:53.395Z,10.07
2018-11-01T16:24:22.113Z,9.97
2018-11-01T16:26:50.778Z,10.03
2018-11-01T16:29:19.525Z,10.04
2018-11-01T16:31:48.176Z,10.05
2018-11-01T16:34:16.826Z,9.99
2018-11-01T16:36:45.643Z,9.95
2018-11-01T16:39:15.020Z,9.78
2018-11-01T16:41:43.755Z,9.71
2018-11-01T16:44:13.152Z,9.64
2018-11-01T16:46:41.780Z,9.66
2018-11-01T16:49:10.835Z,9.69
2018-11-01T16:51:39.480Z,9.74
2018-11-01T16:54:08.186Z,9.76
2018-11-01T16:56:36.846Z,9.68
2018-11-01T16:59:05.963Z,9.66
2018-11-01T17:01:35.797Z,9.60
2018-11-01T17:04:04.565Z,9.60
2018-11-01T17:06:33.333Z,9.53
2018-11-01T17:09:02.004Z,9.64
2018-11-01T17:11:30.829Z,9.55
2018-11-01T17:13:59.444Z,9.59
2018-11-01T17:16:28.081Z,9.50
2018-11-01T17:18:56.815Z,9.65
2018-11-01T17:21:25.454Z,9.52
2018-11-01T17:23:54.105Z,9.55
2018-11-01T17:26:22.929Z,9.61
2018-11-01T17:28:51.560Z,9.57
2018-11-01T17:31:20.401Z,9.57
2018-11-01T17:33:49.183Z,9.57
2018-11-01T17:36:18.006Z,9.62
2018-11-01T17:38:46.748Z,9.69
2018-11-01T17:41:15.515Z,9.67
2018-11-01T17:43:44.287Z,9.63
2018-11-01T17:46:12.996Z,9.59
2018-11-01T17:48:41.955Z,9.64
2018-11-01T17:51:10.696Z,9.57
2018-11-01T17:53:39.273Z,9.51
2018-11-01T17:56:08.033Z,9.56
2018-11-01T17:58:36.693Z,9.60
2018-11-01T18:01:05.816Z,9.63
2018-11-01T18:03:34.772Z,9.63
2018-11-01T18:06:03.424Z,9.63
2018-11-01T18:08:32.244Z,9.63
2018-11-01T18:11:01.024Z,9.55
2018-11-01T18:13:29.656Z,9.62
2018-11-01T18:15:58.367Z,9.60
2018-11-01T18:18:26.983Z,9.68
2018-11-01T18:20:55.696Z,9.80
2018-11-01T18:23:24.404Z,9.71
2018-11-01T18:25:53.024Z,9.83
2018-11-01T18:28:21.672Z,9.78
2018-11-01T18:30:50.396Z,9.71
2018-11-01T18:33:19.080Z,9.64
2018-11-01T18:35:47.788Z,9.64
2018-11-01T18:38:16.400Z,9.66
2018-11-01T18:40:45.065Z,9.60
2018-11-01T18:43:13.811Z,9.59
2018-11-01T18:45:42.442Z,9.59
2018-11-01T18:48:11.128Z,9.68
2018-11-01T18:50:39.769Z,9.62
2018-11-01T18:53:08.473Z,9.59
2018-11-01T18:55:37.117Z,9.68
2018-11-01T18:58:05.889Z,9.66
2018-11-01T19:00:34.595Z,9.65
2018-11-01T19:03:03.212Z,9.65
2018-11-01T19:05:31.854Z,9.59
2018-11-01T19:08:00.500Z,9.47
2018-11-01T19:10:29.251Z,9.54
2018-11-01T19:12:57.917Z,9.54
2018-11-01T19:15:26.571Z,9.46
2018-11-01T19:17:55.275Z,9.44
2018-11-01T19:20:23.948Z,9.25
2018-11-01T19:22:52.600Z,9.21
2018-11-01T19:25:21.459Z,9.17
2018-11-01T19:27:50.106Z,9.14
2018-11-01T19:30:18.660Z,9.16
2018-11-01T19:32:47.292Z,9.02
2018-11-01T19:35:15.999Z,9.05
2018-11-01T19:37:44.636Z,8.95
2018-11-01T19:40:14.979Z,9.03
2018-11-01T19:42:44.047Z,9.06
2018-11-01T19:45:12.772Z,9.07
2018-11-01T19:47:41.403Z,8.97
2018-11-01T19:50:12.060Z,8.92
2018-11-01T19:52:40.908Z,8.89
2018-11-01T19:55:09.693Z,8.82
2018-11-01T19:57:38.490Z,8.75
2018-11-01T20:00:10.349Z,8.82
2018-11-01T20:02:39.131Z,8.79
2018-11-01T20:05:08.674Z,8.87
2018-11-01T20:07:37.516Z,8.74
2018-11-01T20:10:07.663Z,8.73
2018-11-01T20:12:36.294Z,8.57
2018-11-01T20:15:05.543Z,8.51
2018-11-01T20:17:34.525Z,8.44
2018-11-01T20:20:03.520Z,8.43
2018-11-01T20:22:32.166Z,8.45
2018-11-01T20:25:00.865Z,8.37
2018-11-01T20:27:29.557Z,8.36
2018-11-01T20:29:58.197Z,8.35
2018-11-01T20:32:26.877Z,8.33
2018-11-01T20:34:55.565Z,8.26
2018-11-01T20:37:24.256Z,8.24
2018-11-01T20:39:52.979Z,8.24
2018-11-01T20:42:21.616Z,8.21
2018-11-01T20:44:50.360Z,8.09
2018-11-01T20:47:19.021Z,8.16
2018-11-01T20:49:47.682Z,8.06
2018-11-01T20:52:16.371Z,8.15
2018-11-01T20:54:45.034Z,8.27
2018-11-01T20:57:13.812Z,8.16
2018-11-01T20:59:42.340Z,8.17
2018-11-01T21:02:11.020Z,8.12
2018-11-01T21:04:39.803Z,8.08
2018-11-01T21:07:08.413Z,8.03
2018-11-01T21:09:37.074Z,7.93
2018-11-01T21:12:06.152Z,7.96
2018-11-01T21:14:34.831Z,8.00
2018-11-01T21:17:03.650Z,8.00
2018-11-01T21:19:32.172Z,7.98
2018-11-01T21:22:00.846Z,7.90
2018-11-01T21:24:29.575Z,8.01
2018-11-01T21:26:58.240Z,7.99
2018-11-01T21:29:26.931Z,7.88
2018-11-01T21:31:55.940Z,7.93
2018-11-01T21:34:24.977Z,7.96
2018-11-01T21:36:53.600Z,7.93
2018-11-01T21:39:22.248Z,7.97
2018-11-01T21:41:51.341Z,7.79
2018-11-01T21:44:20.283Z,7.98
2018-11-01T21:46:48.892Z,8.01
2018-11-01T21:49:17.704Z,7.91
2018-11-01T21:51:46.648Z,8.01
2018-11-01T21:54:15.354Z,7.79
2018-11-01T21:56:44.216Z,7.68
2018-11-01T21:59:12.995Z,7.72
2018-11-01T22:01:42.408Z,7.70
2018-11-01T22:04:11.152Z,7.70
2018-11-01T22:06:39.753Z,7.85
2018-11-01T22:09:08.668Z,7.76
2018-11-01T22:11:37.566Z,7.73
2018-11-01T22:14:06.713Z,7.70
2018-11-01T22:16:35.500Z,7.60
2018-11-01T22:19:04.218Z,7.67
2018-11-01T22:21:32.950Z,7.81
2018-11-01T22:24:01.603Z,7.74
2018-11-01T22:26:30.322Z,7.67
2018-11-01T22:28:58.985Z,7.44
2018-11-01T22:31:27.885Z,7.42
2018-11-01T22:33:57.378Z,7.46
2018-11-01T22:36:26.184Z,7.35
2018-11-01T22:38:54.911Z,7.32
2018-11-01T22:41:23.574Z,7.30
2018-11-01T22:43:52.256Z,7.44
2018-11-01T22:46:20.988Z,7.40
2018-11-01T22:48:49.778Z,7.47
2018-11-01T22:51:19.049Z,7.39
2018-11-01T22:53:47.732Z,7.33
2018-11-01T22:56:16.308Z,7.35
2018-11-01T22:58:45.129Z,7.44
2018-11-01T23:01:13.776Z,7.45
2018-11-01T23:03:42.864Z,7.31
2018-11-01T23:06:11.521Z,7.33
2018-11-01T23:08:40.129Z,7.39
2018-11-01T23:11:08.804Z,7.41
2018-11-01T23:13:37.452Z,7.34
2018-11-01T23:16:06.119Z,7.26
2018-11-01T23:18:34.797Z,7.25
2018-11-01T23:21:03.444Z,7.18
2018-11-01T23:23:32.320Z,7.27
2018-11-01T23:26:00.983Z,7.24
2018-11-01T23:28:29.596Z,7.31
2018-11-01T23:30:58.409Z,7.26
2018-11-01T23:33:27.026Z,7.20
2018-11-01T23:36:00.632Z,7.23
2018-11-01T23:38:34.688Z,7.31
2018-11-01T23:41:08.698Z,7.33
2018-11-01T23:43:42.728Z,7.33
2018-11-01T23:46:16.774Z,7.18
2018-11-01T23:48:51.704Z,7.29
2018-11-01T23:51:20.333Z,7.28
2018-11-01T23:53:50.246Z,7.28
2018-11-01T23:56:19.238Z,7.39
2018-11-01T23:58:47.868Z,7.42
